Brad Bennink — WDD4338 — position and weather

sailwx.info

Track history (hours):
 
Tides and Currents Weather Stations Pressure Air Temp Water Temp Dewpoint Dewpoint Depression Visibility Wind Speed Wind Dir Waves Ship Positions

Brad Bennink

Owner: American Commercial Lines LLC, Jeffersonville, IN. More information available from US FCC via Universal Licensing System and Coast Guard Vessel Documentation Center.

Last reported at 2017-May-25 03:57 UTC. Time now 2017-May-25 08:46 UTC.
Position N 41°10' W 091°01'.

Length 39 m; draft 2.9 m.

Type: Towing. MMSI: 367143450.

Date/timePositionNaut miles runAvg speedWind from/ knotsBaromVisibWave heightAir tempDewpointWater temp
2017-May-25 03:57N 41°10' W 091°01'3 3.9
2017-May-25 03:10N 41°08' W 090°58'0 0.8
2017-May-25 02:59N 41°08' W 090°58'0 0.8
2017-May-25 02:31N 41°07' W 090°58'2 4.0
2017-May-25 02:00N 41°05' W 090°57'2 4.5
2017-May-25 01:31N 41°03' W 090°57'2 4.6
2017-May-25 01:00N 41°01' W 090°57'2 4.7
2017-May-25 00:31N 40°59' W 090°58'2 4.1
2017-May-25 00:00N 40°57' W 090°57'2 3.9
2017-May-24 23:31N 40°55' W 090°59'2 3.8
2017-May-24 23:01N 40°54' W 091°01'1 2.3
2017-May-24 22:31N 40°53' W 091°01'0 0.2
2017-May-24 22:00N 40°53' W 091°02'0 0.2
2017-May-24 21:30N 40°53' W 091°02'1 2.2
2017-May-24 21:00N 40°52' W 091°03'0 0.0
2017-May-24 20:29N 40°52' W 091°03'1 1.8
2017-May-24 20:00N 40°51' W 091°03'2 5.0
2017-May-24 19:30N 40°49' W 091°05'3 5.4
2017-May-24 19:01N 40°47' W 091°06'  
2017-May-19 22:44N 40°46' W 091°06'2 6.8
2017-May-19 22:30N 40°47' W 091°06'3 6.1
2017-May-19 22:00N 40°50' W 091°05'3 6.4
2017-May-19 21:30N 40°53' W 091°02'0 0.9
2017-May-19 21:00N 40°53' W 091°01'0 0.0
2017-May-19 20:30N 40°53' W 091°01'0 0.2
2017-May-19 20:00N 40°53' W 091°01'0 0.0
2017-May-19 19:30N 40°53' W 091°01'0 0.8
2017-May-19 19:00N 40°53' W 091°01'0 0.0
2017-May-19 18:30N 40°53' W 091°01'0 0.1
2017-May-19 18:00N 40°53' W 091°01'3 5.1
2017-May-19 17:30N 40°55' W 090°58'1 2.3
2017-May-19 17:00N 40°56' W 090°58'3 6.8
2017-May-19 16:30N 40°59' W 090°57'  
Track history (hours):
 
Tides and Currents Weather Stations Pressure Air Temp Water Temp Dewpoint Dewpoint Depression Visibility Wind Speed Wind Dir Waves Ship Positions

Brad Bennink

Owner: American Commercial Lines LLC, Jeffersonville, IN. More information available from US FCC via Universal Licensing System and Coast Guard Vessel Documentation Center.

Last reported at 2017-May-25 03:57 UTC. Time now 2017-May-25 08:46 UTC.
Position N 41°10' W 091°01'.

Length 39 m; draft 2.9 m.

Type: Towing. MMSI: 367143450.

Date/timePositionNaut miles runAvg speedWind from/ knotsBaromVisibWave heightAir tempDewpointWater temp
2017-May-25 03:57N 41°10' W 091°01'3 3.9
2017-May-25 03:10N 41°08' W 090°58'0 0.8
2017-May-25 02:59N 41°08' W 090°58'0 0.8
2017-May-25 02:31N 41°07' W 090°58'2 4.0
2017-May-25 02:00N 41°05' W 090°57'2 4.5
2017-May-25 01:31N 41°03' W 090°57'2 4.6
2017-May-25 01:00N 41°01' W 090°57'2 4.7
2017-May-25 00:31N 40°59' W 090°58'2 4.1
2017-May-25 00:00N 40°57' W 090°57'2 3.9
2017-May-24 23:31N 40°55' W 090°59'2 3.8
2017-May-24 23:01N 40°54' W 091°01'1 2.3
2017-May-24 22:31N 40°53' W 091°01'0 0.2
2017-May-24 22:00N 40°53' W 091°02'0 0.2
2017-May-24 21:30N 40°53' W 091°02'1 2.2
2017-May-24 21:00N 40°52' W 091°03'0 0.0
2017-May-24 20:29N 40°52' W 091°03'1 1.8
2017-May-24 20:00N 40°51' W 091°03'2 5.0
2017-May-24 19:30N 40°49' W 091°05'3 5.4
2017-May-24 19:01N 40°47' W 091°06'  
2017-May-19 22:44N 40°46' W 091°06'2 6.8
2017-May-19 22:30N 40°47' W 091°06'3 6.1
2017-May-19 22:00N 40°50' W 091°05'3 6.4
2017-May-19 21:30N 40°53' W 091°02'0 0.9
2017-May-19 21:00N 40°53' W 091°01'0 0.0
2017-May-19 20:30N 40°53' W 091°01'0 0.2
2017-May-19 20:00N 40°53' W 091°01'0 0.0
2017-May-19 19:30N 40°53' W 091°01'0 0.8
2017-May-19 19:00N 40°53' W 091°01'0 0.0
2017-May-19 18:30N 40°53' W 091°01'0 0.1
2017-May-19 18:00N 40°53' W 091°01'3 5.1
2017-May-19 17:30N 40°55' W 090°58'1 2.3
2017-May-19 17:00N 40°56' W 090°58'3 6.8
2017-May-19 16:30N 40°59' W 090°57'  

Dump ship's entire track history